Terminal Aerodrome Forecast
Issued by NWS

Home | Current Version | Previous Version | Text Only | Print | Product List | Glossary On
Versions: 1 2 3 4 5 6 7 8 9 10 11 12 13
000
FTUS45 KABQ 232335
TAFSAF
TAF
KSAF 232335Z 2400/2424 26012KT P6SM VCTS BKN070CB
      TEMPO 2400/2401 VRB20G30KT -TSRA BKN060CB
     FM240200 16010G18KT P6SM VCSH BKN050
     FM240600 12008KT P6SM BKN050
     FM241200 01006KT P6SM SKC
     FM241500 23007KT P6SM SKC
     FM241800 23014G20KT P6SM SKC=

USA.gov is the U.S. government's official web portal to all federal, state and local government web resources and services.